Terminal Aerodrome Forecast
Issued by NWS Shreveport, LA

Home | Current Version | Previous Version | Text Only | Print | Product List | Glossary On
Versions: 1 2 3 4 5 6 7 8 9 10 11 12 13 14 15 16 17 18 19 20 21 22
000
FTUS44 KSHV 292342
TAFLFK
TAF
KLFK 292342Z 3000/3024 15014G22KT P6SM SCT010 OVC015
      TEMPO 3000/3003 2SM -SHRA BR OVC007
     FM300300 16012G20KT 4SM BR VCTS OVC005CB
     FM300600 24008KT P6SM VCSH OVC070
     FM301100 26010KT P6SM BKN120
     FM301500 27012G20KT P6SM SKC=

USA.gov is the U.S. government's official web portal to all federal, state and local government web resources and services.